TimeEST,TemperatureF,Dew PointF,Humidity,Sea Level PressureIn,VisibilityMPH,Wind Direction,Wind SpeedMPH,Gust SpeedMPH,PrecipitationIn,Events,Conditions,WindDirDegrees,DateUTC
12:53 AM,64.0,57.9,80,30.05,10.0,South,3.5,-,N/A,,Clear,180,2013-01-02 05:53:00
1:53 AM,63.0,59.0,87,30.05,10.0,Calm,Calm,-,N/A,,Clear,0,2013-01-02 06:53:00
2:53 AM,64.0,60.1,87,30.04,10.0,South,4.6,-,N/A,,Scattered Clouds,180,2013-01-02 07:53:00
3:53 AM,64.9,61.0,87,30.04,10.0,South,6.9,-,N/A,,Partly Cloudy,170,2013-01-02 08:53:00
4:53 AM,64.0,61.0,90,30.04,8.0,South,4.6,-,N/A,,Scattered Clouds,190,2013-01-02 09:53:00
5:53 AM,64.0,62.1,93,30.05,7.0,South,3.5,-,N/A,,Mostly Cloudy,190,2013-01-02 10:53:00
6:53 AM,64.0,62.1,93,30.06,8.0,South,5.8,-,N/A,,Mostly Cloudy,190,2013-01-02 11:53:00
7:53 AM,64.9,63.0,93,30.06,7.0,South,6.9,-,N/A,,Mostly Cloudy,170,2013-01-02 12:53:00
8:53 AM,66.9,64.0,90,30.07,8.0,South,8.1,-,N/A,,Mostly Cloudy,170,2013-01-02 13:53:00
9:30 AM,68.0,64.4,88,30.08,9.0,South,9.2,-,N/A,,Mostly Cloudy,180,2013-01-02 14:30:00
9:53 AM,68.0,64.0,87,30.08,9.0,South,10.4,-,N/A,,Mostly Cloudy,180,2013-01-02 14:53:00
10:53 AM,70.0,64.9,84,30.08,9.0,South,11.5,-,N/A,,Mostly Cloudy,180,2013-01-02 15:53:00
11:53 AM,73.0,66.0,79,30.06,10.0,South,10.4,-,N/A,,Mostly Cloudy,170,2013-01-02 16:53:00
12:53 PM,75.0,64.9,71,30.03,10.0,South,12.7,-,N/A,,Mostly Cloudy,180,2013-01-02 17:53:00
1:53 PM,75.0,64.9,71,30.02,10.0,SSW,8.1,-,N/A,,Mostly Cloudy,210,2013-01-02 18:53:00
2:53 PM,75.9,64.9,69,30.01,10.0,SSW,6.9,-,N/A,,Mostly Cloudy,200,2013-01-02 19:53:00
3:53 PM,73.0,64.0,73,30.02,10.0,SW,4.6,-,N/A,,Mostly Cloudy,220,2013-01-02 20:53:00
4:53 PM,71.1,64.0,78,30.03,9.0,WSW,5.8,-,N/A,,Overcast,240,2013-01-02 21:53:00
5:53 PM,69.1,64.9,87,30.04,10.0,West,8.1,-,N/A,,Mostly Cloudy,260,2013-01-02 22:53:00
6:53 PM,68.0,64.9,90,30.05,10.0,West,3.5,-,N/A,,Scattered Clouds,270,2013-01-02 23:53:00
7:53 PM,66.9,64.9,93,30.06,7.0,Calm,Calm,-,N/A,,Clear,0,2013-01-03 00:53:00
8:05 PM,66.2,64.4,94,30.06,7.0,Calm,Calm,-,N/A,,Partly Cloudy,0,2013-01-03 01:05:00
8:48 PM,66.2,64.4,94,30.07,4.0,WSW,3.5,-,N/A,,Scattered Clouds,240,2013-01-03 01:48:00
8:53 PM,66.0,64.0,93,30.07,4.0,SW,3.5,-,N/A,,Scattered Clouds,230,2013-01-03 01:53:00
9:50 PM,64.4,64.4,100,30.08,4.0,Calm,Calm,-,N/A,,Scattered Clouds,0,2013-01-03 02:50:00
9:53 PM,64.0,64.0,100,30.08,4.0,Calm,Calm,-,N/A,,Scattered Clouds,0,2013-01-03 02:53:00
10:20 PM,64.4,64.4,100,30.09,5.0,Calm,Calm,-,N/A,,Mostly Cloudy,0,2013-01-03 03:20:00
10:24 PM,64.4,64.4,100,30.09,5.0,Calm,Calm,-,N/A,,Mostly Cloudy,0,2013-01-03 03:24:00
10:38 PM,64.4,64.4,100,30.09,3.0,Calm,Calm,-,N/A,,Mostly Cloudy,0,2013-01-03 03:38:00
10:53 PM,64.9,64.0,97,30.08,5.0,Calm,Calm,-,N/A,,Scattered Clouds,0,2013-01-03 03:53:00
11:04 PM,64.4,64.4,100,30.08,0.2,North,3.5,-,N/A,,Mostly Cloudy,350,2013-01-03 04:04:00
11:14 PM,62.6,62.6,100,30.08,0.5,North,3.5,-,N/A,,Mostly Cloudy,360,2013-01-03 04:14:00
11:32 PM,64.4,62.6,94,30.08,0.5,Calm,Calm,-,N/A,,Mostly Cloudy,0,2013-01-03 04:32:00
11:53 PM,66.2,64.4,94,30.08,0.5,Calm,Calm,-,N/A,,Overcast,0,2013-01-03 04:53:00